Time;durP1;ratioP1;P1;durP2;ratioP2;P2;SDS_P1;SDS_P2;PMS_P1;PMS_P2;Temp;Humidity;BMP_temperature;BMP_pressure;BME280_temperature;BME280_humidity;BME280_pressure;Samples;Min_cycle;Max_cycle;Signal;HPM_P1;HPM_P2
2022/06/03 00:01:23;;;;;;;;;;;;;;;;;;5030348;28;19999;-80
2022/06/03 00:03:49;;;;;;;;;;;;;;;;;;5035698;28;20000;-80
2022/06/03 00:06:15;;;;;;;;;;;;;;;;;;5038488;28;19919;-80
2022/06/03 00:08:41;;;;;;;;;;;;;;;;;;5038759;28;19958;-80
2022/06/03 00:11:07;;;;;;;;;;;;;;;;;;5041257;28;19943;-81
2022/06/03 00:13:33;;;;;;;;;;;;;;;;;;5039087;28;19958;-80
2022/06/03 00:15:59;;;;;;;;;;;;;;;;;;5037931;28;20526;-80
2022/06/03 00:18:25;;;;;;;;;;;;;;;;;;5036535;28;20019;-80
2022/06/03 00:20:51;;;;;;;;;;;;;;;;;;5040500;28;20007;-80
2022/06/03 00:23:17;;;;;;;;;;;;;;;;;;5033439;28;19974;-81
2022/06/03 00:25:43;;;;;;;;;;;;;;;;;;5041443;28;19920;-81
2022/06/03 00:28:08;;;;;;;;;;;;;;;;;;5039332;28;19917;-81
2022/06/03 00:30:34;;;;;;;;;;;;;;;;;;5038329;28;19925;-81
2022/06/03 00:33:00;;;;;;;;;;;;;;;;;;5034416;28;19913;-81
2022/06/03 00:35:26;;;;;;;;;;;;;;;;;;5034222;28;20309;-81
2022/06/03 00:37:53;;;;;;;;;;;;;;;;;;5036779;28;20382;-81
2022/06/03 00:40:18;;;;;;;;;;;;;;;;;;5041187;28;19920;-81
2022/06/03 00:42:44;;;;;;;;;;;;;;;;;;5035315;28;19913;-79
2022/06/03 00:45:10;;;;;;;;;;;;;;;;;;5042468;28;19913;-84
2022/06/03 00:47:36;;;;;;;;;;;;;;;;;;5033762;28;19942;-83
2022/06/03 00:50:02;;;;;;;;;;;;;;;;;;5059074;28;20066;-84
2022/06/03 00:52:28;;;;;;;;;;;;;;;;;;5035649;28;20396;-82
2022/06/03 00:54:54;;;;;;;;;;;;;;;;;;5039020;28;19912;-81
2022/06/03 00:57:20;;;;;;;;;;;;;;;;;;5039976;28;19916;-82
2022/06/03 00:59:46;;;;;;;;;;;;;;;;;;5031794;28;20401;-81
2022/06/03 01:02:13;;;;;;;;;;;;;;;;;;5029819;28;19913;-81
2022/06/03 01:04:39;;;;;;;;;;;;;;;;;;5035499;28;20381;-81
2022/06/03 01:07:04;;;;;;;;;;;;;;;;;;5035158;28;19942;-82
2022/06/03 01:09:30;;;;;;;;;;;;;;;;;;5033441;28;19921;-81
2022/06/03 01:11:56;;;;;;;;;;;;;;;;;;5030653;28;19970;-80
2022/06/03 01:14:22;;;;;;;;;;;;;;;;;;5048535;28;20061;-79
2022/06/03 01:16:48;;;;;;;;;;;;;;;;;;5035882;28;19976;-78
2022/06/03 01:19:14;;;;;;;;;;;;;;;;;;5037316;28;20007;-79
2022/06/03 01:21:40;;;;;;;;;;;;;;;;;;5037008;28;20408;-79
2022/06/03 01:24:06;;;;;;;;;;;;;;;;;;5038951;28;19913;-79
2022/06/03 01:26:32;;;;;;;;;;;;;;;;;;5038294;28;20382;-79
2022/06/03 01:28:58;;;;;;;;;;;;;;;;;;5034075;28;19956;-78
2022/06/03 01:31:24;;;;;;;;;;;;;;;;;;5037789;28;19920;-77
2022/06/03 01:33:49;;;;;;;;;;;;;;;;;;5029968;28;19917;-77
2022/06/03 01:36:15;;;;;;;;;;;;;;;;;;5030597;28;20003;-79
2022/06/03 01:38:41;;;;;;;;;;;;;;;;;;5033814;28;19917;-80
2022/06/03 01:41:07;;;;;;;;;;;;;;;;;;5033065;28;19917;-79
2022/06/03 01:43:33;;;;;;;;;;;;;;;;;;5032471;28;19912;-81
2022/06/03 01:45:59;;;;;;;;;;;;;;;;;;5032820;28;20352;-81
2022/06/03 01:48:25;;;;;;;;;;;;;;;;;;5038400;28;19913;-80
2022/06/03 01:50:51;;;;;;;;;;;;;;;;;;5034058;28;19913;-80
2022/06/03 01:53:17;;;;;;;;;;;;;;;;;;5029545;28;19917;-80
2022/06/03 01:55:43;;;;;;;;;;;;;;;;;;5037119;28;19917;-80
2022/06/03 01:58:09;;;;;;;;;;;;;;;;;;5038396;28;19960;-80
2022/06/03 02:00:35;;;;;;;;;;;;;;;;;;5038985;28;19920;-80
2022/06/03 02:03:01;;;;;;;;;;;;;;;;;;5033344;28;19913;-81
2022/06/03 02:05:27;;;;;;;;;;;;;;;;;;5033819;28;19916;-82
2022/06/03 02:07:53;;;;;;;;;;;;;;;;;;5033276;28;20023;-81
2022/06/03 02:10:19;;;;;;;;;;;;;;;;;;5037703;28;20034;-80
2022/06/03 02:12:45;;;;;;;;;;;;;;;;;;5029339;28;20003;-80
2022/06/03 02:15:10;;;;;;;;;;;;;;;;;;5035902;28;19913;-81
2022/06/03 02:17:36;;;;;;;;;;;;;;;;;;5037520;28;20332;-80
2022/06/03 02:20:02;;;;;;;;;;;;;;;;;;5034203;28;19913;-81
2022/06/03 02:22:28;;;;;;;;;;;;;;;;;;5041109;28;19919;-80
2022/06/03 02:24:54;;;;;;;;;;;;;;;;;;5037146;28;19932;-80
2022/06/03 02:27:20;;;;;;;;;;;;;;;;;;5044359;28;19912;-80
2022/06/03 02:32:31;;;;;;;;;;;;;;;;;;5035951;28;19919;-80
2022/06/03 02:34:56;;;;;;;;;;;;;;;;;;5032814;28;19916;-79
2022/06/03 02:37:22;;;;;;;;;;;;;;;;;;5040358;28;19980;-80
2022/06/03 02:39:48;;;;;;;;;;;;;;;;;;5036679;28;20076;-80
2022/06/03 02:42:14;;;;;;;;;;;;;;;;;;5039117;28;20383;-81
2022/06/03 02:44:40;;;;;;;;;;;;;;;;;;5035620;28;19917;-81
2022/06/03 02:47:06;;;;;;;;;;;;;;;;;;5041722;28;19912;-80
2022/06/03 02:49:32;;;;;;;;;;;;;;;;;;5040958;28;20506;-80
2022/06/03 02:51:58;;;;;;;;;;;;;;;;;;5042600;28;20344;-80
2022/06/03 02:54:24;;;;;;;;;;;;;;;;;;5039864;28;19912;-78
2022/06/03 02:56:50;;;;;;;;;;;;;;;;;;5040639;28;19918;-78
2022/06/03 02:59:16;;;;;;;;;;;;;;;;;;5037847;28;19975;-79
2022/06/03 03:01:42;;;;;;;;;;;;;;;;;;5038591;28;20757;-79
2022/06/03 03:04:08;;;;;;;;;;;;;;;;;;5040546;28;19913;-81
2022/06/03 03:06:35;;;;;;;;;;;;;;;;;;5038132;28;19935;-80
2022/06/03 03:09:01;;;;;;;;;;;;;;;;;;5038400;28;19955;-80
2022/06/03 03:11:27;;;;;;;;;;;;;;;;;;5042139;28;20374;-81
2022/06/03 03:13:52;;;;;;;;;;;;;;;;;;5033373;28;19913;-81
2022/06/03 03:16:20;;;;;;;;;;;;;;;;;;5045078;28;19923;-81
2022/06/03 03:18:46;;;;;;;;;;;;;;;;;;5039310;28;19974;-80
2022/06/03 03:21:12;;;;;;;;;;;;;;;;;;5042171;28;19912;-81
2022/06/03 03:23:38;;;;;;;;;;;;;;;;;;5035614;28;20445;-81
2022/06/03 03:26:04;;;;;;;;;;;;;;;;;;5033697;28;19917;-80
2022/06/03 03:28:30;;;;;;;;;;;;;;;;;;5041629;28;19917;-80
2022/06/03 03:30:56;;;;;;;;;;;;;;;;;;5036082;28;20377;-81
2022/06/03 03:33:21;;;;;;;;;;;;;;;;;;5036748;28;19908;-81
2022/06/03 03:35:47;;;;;;;;;;;;;;;;;;5034329;28;19952;-80
2022/06/03 03:38:13;;;;;;;;;;;;;;;;;;5035597;28;19912;-80
2022/06/03 03:40:39;;;;;;;;;;;;;;;;;;5035669;28;20481;-81
2022/06/03 03:43:05;;;;;;;;;;;;;;;;;;5069621;28;19919;-80
2022/06/03 03:45:31;;;;;;;;;;;;;;;;;;5039682;28;19913;-80
2022/06/03 03:47:57;;;;;;;;;;;;;;;;;;5035041;28;19916;-80
2022/06/03 03:50:23;;;;;;;;;;;;;;;;;;5039491;28;19966;-81
2022/06/03 03:52:49;;;;;;;;;;;;;;;;;;5038974;28;20004;-81
2022/06/03 03:55:15;;;;;;;;;;;;;;;;;;5039646;28;19913;-80
2022/06/03 03:57:41;;;;;;;;;;;;;;;;;;5038191;28;19958;-81
2022/06/03 04:00:07;;;;;;;;;;;;;;;;;;5039161;28;19923;-80
2022/06/03 04:02:33;;;;;;;;;;;;;;;;;;5032707;28;20407;-81
2022/06/03 04:05:00;;;;;;;;;;;;;;;;;;5034256;28;20286;-80
2022/06/03 04:07:26;;;;;;;;;;;;;;;;;;5035071;28;19913;-81
2022/06/03 04:09:52;;;;;;;;;;;;;;;;;;5040940;28;20495;-81
2022/06/03 04:12:18;;;;;;;;;;;;;;;;;;5039089;28;19956;-80
2022/06/03 04:14:45;;;;;;;;;;;;;;;;;;5039759;28;19913;-80
2022/06/03 04:17:11;;;;;;;;;;;;;;;;;;5036060;28;19928;-79
2022/06/03 04:19:37;;;;;;;;;;;;;;;;;;5037497;28;20081;-81
2022/06/03 04:22:04;;;;;;;;;;;;;;;;;;5039823;28;19916;-83
2022/06/03 04:24:29;;;;;;;;;;;;;;;;;;5034453;28;19912;-80
2022/06/03 04:26:55;;;;;;;;;;;;;;;;;;5035090;28;20380;-81
2022/06/03 04:29:39;;;;;;;;;;;;;;;;;;5031860;28;19928;-81
2022/06/03 04:32:05;;;;;;;;;;;;;;;;;;5030828;28;19975;-82
2022/06/03 04:34:30;;;;;;;;;;;;;;;;;;5039731;28;20386;-83
2022/06/03 04:36:56;;;;;;;;;;;;;;;;;;5035099;28;19913;-80
2022/06/03 04:39:22;;;;;;;;;;;;;;;;;;5036771;28;19913;-82
2022/06/03 04:41:48;;;;;;;;;;;;;;;;;;5033710;28;20427;-81
2022/06/03 04:44:14;;;;;;;;;;;;;;;;;;5032788;28;19948;-81
2022/06/03 04:46:40;;;;;;;;;;;;;;;;;;5036111;28;20465;-83
2022/06/03 04:49:06;;;;;;;;;;;;;;;;;;5035391;28;20627;-85
2022/06/03 04:51:33;;;;;;;;;;;;;;;;;;5039163;28;20031;-86
2022/06/03 04:53:59;;;;;;;;;;;;;;;;;;5029848;28;19912;-83
2022/06/03 04:56:25;;;;;;;;;;;;;;;;;;5038265;28;19912;-83
2022/06/03 04:58:51;;;;;;;;;;;;;;;;;;5032371;28;19913;-83
2022/06/03 05:01:17;;;;;;;;;;;;;;;;;;5042183;28;20031;-81
2022/06/03 05:03:43;;;;;;;;;;;;;;;;;;5036441;28;19935;-80
2022/06/03 05:06:09;;;;;;;;;;;;;;;;;;5037506;28;19921;-83
2022/06/03 05:08:35;;;;;;;;;;;;;;;;;;5031356;28;19917;-86
2022/06/03 05:11:01;;;;;;;;;;;;;;;;;;5025954;28;19936;-83
2022/06/03 05:13:27;;;;;;;;;;;;;;;;;;5035922;28;20650;-83
2022/06/03 05:15:52;;;;;;;;;;;;;;;;;;5035098;28;19921;-81
2022/06/03 05:18:18;;;;;;;;;;;;;;;;;;5038861;28;19919;-84
2022/06/03 05:20:45;;;;;;;;;;;;;;;;;;5034803;28;20689;-82
2022/06/03 05:23:11;;;;;;;;;;;;;;;;;;5032757;28;20393;-80
2022/06/03 05:25:37;;;;;;;;;;;;;;;;;;5033321;28;19939;-77
2022/06/03 05:28:03;;;;;;;;;;;;;;;;;;5032277;28;19917;-79
2022/06/03 05:30:29;;;;;;;;;;;;;;;;;;5035001;28;19966;-78
2022/06/03 05:32:55;;;;;;;;;;;;;;;;;;5036263;28;19912;-82
2022/06/03 05:35:21;;;;;;;;;;;;;;;;;;5034815;28;19913;-82
2022/06/03 05:37:47;;;;;;;;;;;;;;;;;;5037274;28;20396;-78
2022/06/03 05:40:13;;;;;;;;;;;;;;;;;;5038268;28;19966;-83
2022/06/03 05:42:39;;;;;;;;;;;;;;;;;;5032692;28;19916;-83
2022/06/03 05:45:07;;;;;;;;;;;;;;;;;;5037884;28;19913;-84
2022/06/03 05:47:33;;;;;;;;;;;;;;;;;;5033471;28;19913;-84
2022/06/03 05:49:59;;;;;;;;;;;;;;;;;;5036283;28;20012;-84
2022/06/03 05:52:24;;;;;;;;;;;;;;;;;;5034547;28;19951;-83
2022/06/03 05:54:50;;;;;;;;;;;;;;;;;;5037793;28;20461;-83
2022/06/03 05:57:16;;;;;;;;;;;;;;;;;;5034269;28;19920;-84
2022/06/03 05:59:42;;;;;;;;;;;;;;;;;;5036485;28;19912;-83
2022/06/03 06:02:08;;;;;;;;;;;;;;;;;;5034666;28;19919;-84
2022/06/03 06:04:34;;;;;;;;;;;;;;;;;;5039817;28;19947;-84
2022/06/03 06:07:00;;;;;;;;;;;;;;;;;;5023027;28;19912;-84
2022/06/03 06:09:26;;;;;;;;;;;;;;;;;;5038690;28;19924;-84
2022/06/03 06:11:52;;;;;;;;;;;;;;;;;;5036798;28;19991;-84
2022/06/03 06:14:18;;;;;;;;;;;;;;;;;;5039686;28;19917;-85
2022/06/03 06:16:44;;;;;;;;;;;;;;;;;;5035911;28;20393;-87
2022/06/03 06:19:09;;;;;;;;;;;;;;;;;;5034006;28;19916;-90
2022/06/03 06:21:36;;;;;;;;;;;;;;;;;;5028863;28;19948;-86
2022/06/03 06:24:02;;;;;;;;;;;;;;;;;;5037797;28;19919;-86
2022/06/03 06:26:28;;;;;;;;;;;;;;;;;;5032744;28;19912;-86
2022/06/03 06:28:54;;;;;;;;;;;;;;;;;;5036912;28;19978;-88
2022/06/03 06:31:20;;;;;;;;;;;;;;;;;;5036255;28;19970;-84
2022/06/03 06:33:46;;;;;;;;;;;;;;;;;;5042321;28;19913;-86
2022/06/03 06:36:12;;;;;;;;;;;;;;;;;;5031837;28;20453;-86
2022/06/03 06:38:38;;;;;;;;;;;;;;;;;;5031944;28;19913;-86
2022/06/03 06:41:04;;;;;;;;;;;;;;;;;;5036057;28;19913;-86
2022/06/03 06:43:30;;;;;;;;;;;;;;;;;;5038200;28;19935;-86
2022/06/03 06:45:56;;;;;;;;;;;;;;;;;;5032006;28;19932;-87
2022/06/03 06:48:22;;;;;;;;;;;;;;;;;;5035403;28;19908;-89
2022/06/03 06:50:47;;;;;;;;;;;;;;;;;;5031996;28;19925;-88
2022/06/03 06:53:13;;;;;;;;;;;;;;;;;;5035300;28;19956;-88
2022/06/03 06:55:39;;;;;;;;;;;;;;;;;;5034879;28;19917;-89
2022/06/03 06:58:06;;;;;;;;;;;;;;;;;;5039065;28;19912;-85
2022/06/03 07:00:32;;;;;;;;;;;;;;;;;;5036605;28;19913;-86
2022/06/03 07:02:58;;;;;;;;;;;;;;;;;;5034754;28;20385;-86
2022/06/03 07:05:24;;;;;;;;;;;;;;;;;;5033923;28;19916;-86
2022/06/03 07:07:51;;;;;;;;;;;;;;;;;;5039311;28;19913;-86
2022/06/03 07:10:17;;;;;;;;;;;;;;;;;;5039872;28;20329;-85
2022/06/03 07:12:43;;;;;;;;;;;;;;;;;;5039558;28;19927;-86
2022/06/03 07:15:08;;;;;;;;;;;;;;;;;;5034967;28;20373;-86
2022/06/03 07:20:19;;;;;;;;;;;;;;;;;;5030681;28;19920;-86
2022/06/03 07:22:45;;;;;;;;;;;;;;;;;;5031456;28;19913;-87
2022/06/03 07:25:11;;;;;;;;;;;;;;;;;;5038806;28;20362;-86
2022/06/03 07:27:39;;;;;;;;;;;;;;;;;;5038166;28;20610;-86
2022/06/03 07:30:05;;;;;;;;;;;;;;;;;;5029499;28;19928;-86
2022/06/03 07:32:31;;;;;;;;;;;;;;;;;;5036882;28;19912;-86
2022/06/03 07:34:57;;;;;;;;;;;;;;;;;;5039167;28;19908;-86
2022/06/03 07:37:23;;;;;;;;;;;;;;;;;;5042227;28;20399;-86
2022/06/03 07:39:49;;;;;;;;;;;;;;;;;;5038430;28;20367;-85
2022/06/03 07:42:15;;;;;;;;;;;;;;;;;;5039674;28;19954;-86
2022/06/03 07:44:41;;;;;;;;;;;;;;;;;;5036967;28;19913;-86
2022/06/03 07:47:06;;;;;;;;;;;;;;;;;;5037304;28;19916;-86
2022/06/03 07:49:32;;;;;;;;;;;;;;;;;;5042413;28;20341;-87
2022/06/03 07:51:58;;;;;;;;;;;;;;;;;;5050535;28;20305;-86
2022/06/03 07:54:24;;;;;;;;;;;;;;;;;;5041334;28;19912;-86
2022/06/03 07:56:50;;;;;;;;;;;;;;;;;;5037493;28;19920;-86
2022/06/03 07:59:17;;;;;;;;;;;;;;;;;;5036283;28;19917;-85
2022/06/03 08:01:43;;;;;;;;;;;;;;;;;;5040205;28;20015;-87
2022/06/03 08:04:09;;;;;;;;;;;;;;;;;;5035295;28;20502;-85
2022/06/03 08:12:04;;;;;;;;;;;;;;;;;;5032429;28;19923;-87
2022/06/03 08:14:30;;;;;;;;;;;;;;;;;;5050266;28;19921;-87
2022/06/03 08:16:56;;;;;;;;;;;;;;;;;;5035196;28;20670;-88
2022/06/03 08:19:22;;;;;;;;;;;;;;;;;;5042361;28;19938;-88
2022/06/03 08:21:49;;;;;;;;;;;;;;;;;;5038480;28;19915;-87
2022/06/03 08:24:15;;;;;;;;;;;;;;;;;;5038117;28;19916;-87
2022/06/03 08:26:42;;;;;;;;;;;;;;;;;;5038983;28;19912;-88
2022/06/03 08:29:08;;;;;;;;;;;;;;;;;;5038504;28;20315;-87
2022/06/03 08:31:34;;;;;;;;;;;;;;;;;;5039618;28;19909;-87
2022/06/03 08:34:00;;;;;;;;;;;;;;;;;;5041068;28;19912;-87
2022/06/03 08:36:26;;;;;;;;;;;;;;;;;;5039134;28;20279;-87
2022/06/03 08:38:52;;;;;;;;;;;;;;;;;;5035593;28;19965;-88
2022/06/03 08:41:18;;;;;;;;;;;;;;;;;;5036051;28;19943;-87
2022/06/03 08:43:44;;;;;;;;;;;;;;;;;;5041201;28;20003;-87
2022/06/03 08:46:10;;;;;;;;;;;;;;;;;;5036958;28;19966;-87
2022/06/03 08:48:36;;;;;;;;;;;;;;;;;;5034393;28;20439;-88
2022/06/03 08:51:02;;;;;;;;;;;;;;;;;;5041908;28;19921;-87
2022/06/03 08:53:27;;;;;;;;;;;;;;;;;;5035250;28;19913;-87
2022/06/03 08:55:53;;;;;;;;;;;;;;;;;;5038351;28;19924;-87
2022/06/03 08:58:19;;;;;;;;;;;;;;;;;;5026635;28;20289;-87
2022/06/03 09:00:45;;;;;;;;;;;;;;;;;;5039884;28;19913;-88
2022/06/03 09:03:11;;;;;;;;;;;;;;;;;;5037944;28;20381;-88
2022/06/03 09:05:37;;;;;;;;;;;;;;;;;;5035567;28;19913;-87
2022/06/03 09:08:03;;;;;;;;;;;;;;;;;;5036411;28;19912;-87
2022/06/03 09:10:29;;;;;;;;;;;;;;;;;;5038311;28;19921;-87
2022/06/03 09:12:55;;;;;;;;;;;;;;;;;;5041229;28;19913;-87
2022/06/03 09:15:21;;;;;;;;;;;;;;;;;;5039481;28;19991;-87
2022/06/03 09:17:48;;;;;;;;;;;;;;;;;;5031822;28;19908;-89
2022/06/03 09:20:15;;;;;;;;;;;;;;;;;;5027335;28;20294;-87
2022/06/03 09:22:41;;;;;;;;;;;;;;;;;;5038916;28;20305;-89
2022/06/03 09:25:10;;;;;;;;;;;;;;;;;;5037279;28;19913;-89
2022/06/03 09:27:36;;;;;;;;;;;;;;;;;;5031933;28;20020;-92
2022/06/03 09:30:03;;;;;;;;;;;;;;;;;;5034381;28;19995;-91
2022/06/03 09:32:28;;;;;;;;;;;;;;;;;;5043447;28;20009;-91
2022/06/03 09:34:54;;;;;;;;;;;;;;;;;;5046842;28;19963;-93
2022/06/03 09:37:20;;;;;;;;;;;;;;;;;;5039112;28;20003;-86
2022/06/03 09:39:46;;;;;;;;;;;;;;;;;;5030150;28;19934;-83
2022/06/03 09:42:12;;;;;;;;;;;;;;;;;;5030638;28;20266;-86
2022/06/03 09:44:38;;;;;;;;;;;;;;;;;;5032084;28;19913;-86
2022/06/03 09:47:04;;;;;;;;;;;;;;;;;;5035491;28;19912;-87
2022/06/03 09:49:30;;;;;;;;;;;;;;;;;;5038828;28;19975;-87
2022/06/03 09:51:56;;;;;;;;;;;;;;;;;;5035248;28;20503;-87
2022/06/03 09:54:22;;;;;;;;;;;;;;;;;;5039040;28;19905;-87
2022/06/03 09:56:50;;;;;;;;;;;;;;;;;;5033410;28;20004;-87
2022/06/03 09:59:16;;;;;;;;;;;;;;;;;;5036547;28;20020;-86
2022/06/03 10:01:42;;;;;;;;;;;;;;;;;;5038915;28;19912;-87
2022/06/03 10:04:08;;;;;;;;;;;;;;;;;;5035730;28;19917;-88
2022/06/03 10:06:43;;;;;;;;;;;;;;;;;;5037326;28;20374;-87
2022/06/03 10:14:38;;;;;;;;;;;;;;;;;;5031857;28;20298;-86
2022/06/03 10:17:04;;;;;;;;;;;;;;;;;;5036147;28;19913;-88
2022/06/03 10:19:30;;;;;;;;;;;;;;;;;;5040084;28;19913;-87
2022/06/03 10:21:56;;;;;;;;;;;;;;;;;;5034148;28;19935;-87
2022/06/03 10:24:23;;;;;;;;;;;;;;;;;;5037027;28;19967;-87
2022/06/03 10:26:49;;;;;;;;;;;;;;;;;;5032944;28;19956;-87
2022/06/03 10:29:15;;;;;;;;;;;;;;;;;;5033481;28;19921;-87
2022/06/03 10:31:41;;;;;;;;;;;;;;;;;;5038662;28;19919;-87
2022/06/03 10:34:07;;;;;;;;;;;;;;;;;;5035611;28;19913;-87
2022/06/03 10:36:33;;;;;;;;;;;;;;;;;;5033911;28;19921;-86
2022/06/03 10:38:59;;;;;;;;;;;;;;;;;;5049963;28;19913;-87
2022/06/03 10:41:25;;;;;;;;;;;;;;;;;;5033692;28;19920;-87
2022/06/03 10:43:51;;;;;;;;;;;;;;;;;;5042056;28;19921;-87
2022/06/03 10:46:17;;;;;;;;;;;;;;;;;;5043224;28;19928;-87
2022/06/03 10:48:43;;;;;;;;;;;;;;;;;;5037653;28;20313;-87
2022/06/03 10:51:09;;;;;;;;;;;;;;;;;;5035861;28;20027;-90
2022/06/03 11:01:49;;;;;;;;;;;;;;;;;;5038697;28;19920;-89
2022/06/03 11:04:15;;;;;;;;;;;;;;;;;;5043868;28;19912;-90
2022/06/03 11:06:40;;;;;;;;;;;;;;;;;;5045529;28;19916;-91
2022/06/03 11:09:07;;;;;;;;;;;;;;;;;;5037821;28;19927;-89
2022/06/03 11:11:33;;;;;;;;;;;;;;;;;;5038619;28;19934;-88
2022/06/03 11:13:59;;;;;;;;;;;;;;;;;;5036218;28;20390;-86
2022/06/03 11:16:25;;;;;;;;;;;;;;;;;;5030999;28;20367;-89
2022/06/03 11:18:50;;;;;;;;;;;;;;;;;;5038468;28;19918;-90
2022/06/03 11:21:16;;;;;;;;;;;;;;;;;;5036289;28;19923;-88
2022/06/03 11:23:42;;;;;;;;;;;;;;;;;;5032282;28;19924;-87
2022/06/03 11:26:09;;;;;;;;;;;;;;;;;;5032555;28;19932;-88
2022/06/03 11:28:36;;;;;;;;;;;;;;;;;;5042337;28;19921;-85
2022/06/03 11:31:02;;;;;;;;;;;;;;;;;;5028446;28;20055;-86
2022/06/03 11:33:28;;;;;;;;;;;;;;;;;;5031737;28;20012;-86
2022/06/03 11:35:54;;;;;;;;;;;;;;;;;;5035491;28;20746;-86
2022/06/03 11:38:20;;;;;;;;;;;;;;;;;;5033328;28;19924;-85
2022/06/03 11:40:51;;;;;;;;;;;;;;;;;;5032620;28;20018;-85
2022/06/03 11:43:17;;;;;;;;;;;;;;;;;;5038207;28;19916;-85
2022/06/03 11:45:43;;;;;;;;;;;;;;;;;;5030371;28;19921;-85
2022/06/03 11:48:09;;;;;;;;;;;;;;;;;;5061958;28;19962;-86
2022/06/03 11:50:35;;;;;;;;;;;;;;;;;;5033488;28;19924;-85
2022/06/03 11:53:01;;;;;;;;;;;;;;;;;;5036673;28;19913;-85
2022/06/03 11:55:27;;;;;;;;;;;;;;;;;;5039822;28;20402;-84
2022/06/03 11:57:53;;;;;;;;;;;;;;;;;;5038788;28;19917;-84
2022/06/03 12:00:19;;;;;;;;;;;;;;;;;;5040117;28;19913;-84
2022/06/03 12:02:45;;;;;;;;;;;;;;;;;;5037859;28;20356;-84
2022/06/03 12:05:11;;;;;;;;;;;;;;;;;;5037104;28;19913;-84
2022/06/03 12:07:37;;;;;;;;;;;;;;;;;;5039852;28;19971;-83
2022/06/03 12:10:03;;;;;;;;;;;;;;;;;;5041684;28;19921;-85
2022/06/03 12:15:14;;;;;;;;;;;;;;;;;;5038117;28;19920;-85
2022/06/03 12:17:40;;;;;;;;;;;;;;;;;;5035420;28;19912;-85
2022/06/03 12:20:06;;;;;;;;;;;;;;;;;;5030815;28;19924;-84
2022/06/03 12:22:32;;;;;;;;;;;;;;;;;;5030341;28;20278;-84
2022/06/03 12:24:58;;;;;;;;;;;;;;;;;;5029459;28;19912;-85
2022/06/03 12:27:24;;;;;;;;;;;;;;;;;;5038878;28;19912;-84
2022/06/03 12:29:50;;;;;;;;;;;;;;;;;;5035836;28;20651;-84
2022/06/03 12:32:15;;;;;;;;;;;;;;;;;;5035376;28;19920;-85
2022/06/03 12:34:41;;;;;;;;;;;;;;;;;;5039823;28;19912;-85
2022/06/03 12:37:07;;;;;;;;;;;;;;;;;;5038830;28;20321;-84
2022/06/03 12:39:34;;;;;;;;;;;;;;;;;;5038219;28;19912;-85
2022/06/03 12:42:00;;;;;;;;;;;;;;;;;;5038216;28;19956;-85
2022/06/03 12:44:26;;;;;;;;;;;;;;;;;;5035191;28;20004;-85
2022/06/03 12:46:52;;;;;;;;;;;;;;;;;;5038880;28;19913;-85
2022/06/03 12:49:18;;;;;;;;;;;;;;;;;;5037444;28;19925;-88
2022/06/03 12:51:44;;;;;;;;;;;;;;;;;;5032875;28;19913;-89
2022/06/03 12:54:10;;;;;;;;;;;;;;;;;;5024440;28;20287;-85
2022/06/03 12:56:36;;;;;;;;;;;;;;;;;;5028160;28;19913;-89
2022/06/03 12:59:02;;;;;;;;;;;;;;;;;;5029965;28;20390;-88
2022/06/03 13:01:28;;;;;;;;;;;;;;;;;;5042410;28;19917;-88
2022/06/03 13:03:54;;;;;;;;;;;;;;;;;;5035832;28;20433;-88
2022/06/03 13:06:21;;;;;;;;;;;;;;;;;;5037219;28;19908;-88
2022/06/03 13:11:31;;;;;;;;;;;;;;;;;;5029983;28;19990;-86
2022/06/03 13:13:57;;;;;;;;;;;;;;;;;;5038791;28;20742;-87
2022/06/03 13:16:31;;;;;;;;;;;;;;;;;;5034372;28;19913;-86
2022/06/03 13:18:57;;;;;;;;;;;;;;;;;;5028366;28;19912;-86
2022/06/03 13:21:23;;;;;;;;;;;;;;;;;;5028880;28;19982;-86
2022/06/03 13:23:49;;;;;;;;;;;;;;;;;;5032532;28;19916;-86
2022/06/03 13:26:15;;;;;;;;;;;;;;;;;;5037009;28;19913;-86
2022/06/03 13:28:43;;;;;;;;;;;;;;;;;;5031843;28;19963;-90
2022/06/03 13:31:09;;;;;;;;;;;;;;;;;;5036696;28;19971;-89
2022/06/03 13:33:34;;;;;;;;;;;;;;;;;;5038438;28;19952;-89
2022/06/03 13:36:01;;;;;;;;;;;;;;;;;;5037412;28;19912;-91
2022/06/03 13:38:28;;;;;;;;;;;;;;;;;;5034777;28;19920;-89
2022/06/03 13:43:38;;;;;;;;;;;;;;;;;;5031587;28;19959;-90
2022/06/03 13:46:04;;;;;;;;;;;;;;;;;;5033511;28;19975;-90
2022/06/03 13:48:32;;;;;;;;;;;;;;;;;;5026884;28;19919;-89
2022/06/03 13:50:58;;;;;;;;;;;;;;;;;;5029742;28;20032;-90
2022/06/03 13:53:24;;;;;;;;;;;;;;;;;;5031265;28;20003;-89
2022/06/03 13:55:50;;;;;;;;;;;;;;;;;;5055942;28;20386;-89
2022/06/03 13:58:18;;;;;;;;;;;;;;;;;;5057099;28;19923;-89
2022/06/03 14:00:44;;;;;;;;;;;;;;;;;;5035544;28;19948;-90
2022/06/03 14:03:10;;;;;;;;;;;;;;;;;;5032897;28;20053;-91
2022/06/03 14:05:36;;;;;;;;;;;;;;;;;;5033952;28;19917;-89
2022/06/03 14:08:03;;;;;;;;;;;;;;;;;;5034361;28;19913;-89
2022/06/03 14:10:29;;;;;;;;;;;;;;;;;;5026666;28;19952;-88
2022/06/03 14:12:55;;;;;;;;;;;;;;;;;;5036829;28;20119;-89
2022/06/03 14:15:21;;;;;;;;;;;;;;;;;;5026420;28;19913;-89
2022/06/03 14:17:47;;;;;;;;;;;;;;;;;;5030323;28;19913;-88
2022/06/03 14:20:13;;;;;;;;;;;;;;;;;;5029861;28;19920;-90
2022/06/03 14:22:39;;;;;;;;;;;;;;;;;;5031728;28;19917;-91
2022/06/03 14:25:05;;;;;;;;;;;;;;;;;;5032270;28;20000;-89
2022/06/03 14:27:31;;;;;;;;;;;;;;;;;;5059135;28;20382;-90
2022/06/03 14:29:58;;;;;;;;;;;;;;;;;;5024442;28;19931;-89
2022/06/03 14:32:23;;;;;;;;;;;;;;;;;;5056705;28;19970;-89
2022/06/03 14:34:49;;;;;;;;;;;;;;;;;;5025466;28;19917;-88
2022/06/03 14:37:15;;;;;;;;;;;;;;;;;;5028228;28;20374;-89
2022/06/03 14:39:41;;;;;;;;;;;;;;;;;;5023138;28;20386;-89
2022/06/03 14:42:07;;;;;;;;;;;;;;;;;;5030492;28;19995;-91
2022/06/03 14:44:33;;;;;;;;;;;;;;;;;;5031896;28;20515;-92
2022/06/03 14:46:59;;;;;;;;;;;;;;;;;;5031941;28;19981;-91
2022/06/03 14:49:25;;;;;;;;;;;;;;;;;;5036591;28;19923;-90
2022/06/03 14:51:51;;;;;;;;;;;;;;;;;;5037303;28;19966;-88
2022/06/03 14:54:17;;;;;;;;;;;;;;;;;;5038286;28;19913;-89
2022/06/03 14:56:43;;;;;;;;;;;;;;;;;;5038258;28;19957;-90
2022/06/03 14:59:09;;;;;;;;;;;;;;;;;;5038200;28;20354;-90
2022/06/03 15:01:40;;;;;;;;;;;;;;;;;;5038377;28;19912;-90
2022/06/03 15:04:06;;;;;;;;;;;;;;;;;;5034554;28;19917;-91
2022/06/03 15:06:32;;;;;;;;;;;;;;;;;;5031038;28;20301;-91
2022/06/03 15:08:57;;;;;;;;;;;;;;;;;;5033579;28;19924;-91
2022/06/03 15:11:23;;;;;;;;;;;;;;;;;;5034982;28;19913;-90
2022/06/03 15:13:50;;;;;;;;;;;;;;;;;;5034686;28;19912;-89
2022/06/03 15:16:16;;;;;;;;;;;;;;;;;;5037620;28;19959;-90
2022/06/03 15:18:42;;;;;;;;;;;;;;;;;;5032916;28;19917;-90
2022/06/03 15:21:09;;;;;;;;;;;;;;;;;;5029557;28;19921;-90
2022/06/03 15:23:35;;;;;;;;;;;;;;;;;;5037504;28;20374;-89
2022/06/03 15:26:02;;;;;;;;;;;;;;;;;;5026233;28;19913;-90
2022/06/03 15:28:28;;;;;;;;;;;;;;;;;;5028291;28;19916;-86
2022/06/03 15:30:54;;;;;;;;;;;;;;;;;;5029799;28;19921;-87
2022/06/03 15:33:19;;;;;;;;;;;;;;;;;;5030064;28;20026;-86
2022/06/03 15:35:45;;;;;;;;;;;;;;;;;;5036522;28;20037;-86
2022/06/03 15:38:13;;;;;;;;;;;;;;;;;;5039060;28;19913;-86
2022/06/03 15:40:39;;;;;;;;;;;;;;;;;;5039607;28;19925;-86
2022/06/03 15:43:04;;;;;;;;;;;;;;;;;;5040791;28;19912;-86
2022/06/03 15:45:31;;;;;;;;;;;;;;;;;;5042240;28;19908;-85
2022/06/03 15:47:57;;;;;;;;;;;;;;;;;;5035762;28;19916;-86
2022/06/03 15:50:23;;;;;;;;;;;;;;;;;;5037702;28;19974;-86
2022/06/03 15:52:49;;;;;;;;;;;;;;;;;;5028630;28;20321;-86
2022/06/03 15:55:15;;;;;;;;;;;;;;;;;;5027173;28;19913;-86
2022/06/03 15:57:41;;;;;;;;;;;;;;;;;;5031248;28;19924;-88
2022/06/03 16:00:07;;;;;;;;;;;;;;;;;;5033681;28;20538;-86
2022/06/03 16:02:33;;;;;;;;;;;;;;;;;;5032828;28;19916;-88
2022/06/03 16:04:59;;;;;;;;;;;;;;;;;;5031259;28;19923;-87
2022/06/03 16:07:25;;;;;;;;;;;;;;;;;;5028086;28;19913;-83
2022/06/03 16:09:51;;;;;;;;;;;;;;;;;;5032637;28;19962;-86
2022/06/03 16:12:17;;;;;;;;;;;;;;;;;;5035251;28;19925;-87
2022/06/03 16:14:43;;;;;;;;;;;;;;;;;;5035283;28;19920;-86
2022/06/03 16:17:09;;;;;;;;;;;;;;;;;;5033261;28;19912;-86
2022/06/03 16:19:35;;;;;;;;;;;;;;;;;;5029933;28;19967;-85
2022/06/03 16:22:02;;;;;;;;;;;;;;;;;;5039639;28;19920;-83
2022/06/03 16:24:28;;;;;;;;;;;;;;;;;;5039082;28;19916;-84
2022/06/03 16:26:54;;;;;;;;;;;;;;;;;;5034320;28;19919;-83
2022/06/03 16:29:20;;;;;;;;;;;;;;;;;;5037818;28;19921;-83
2022/06/03 16:31:47;;;;;;;;;;;;;;;;;;5038511;28;20007;-83
2022/06/03 16:34:13;;;;;;;;;;;;;;;;;;5037005;28;19923;-84
2022/06/03 16:36:39;;;;;;;;;;;;;;;;;;5039929;28;19934;-85
2022/06/03 16:39:05;;;;;;;;;;;;;;;;;;5027988;28;20735;-84
2022/06/03 16:41:31;;;;;;;;;;;;;;;;;;5025665;28;19917;-86
2022/06/03 16:43:57;;;;;;;;;;;;;;;;;;5024705;28;19958;-86
2022/06/03 16:46:23;;;;;;;;;;;;;;;;;;5037288;28;19919;-87
2022/06/03 16:48:48;;;;;;;;;;;;;;;;;;5034351;28;20393;-87
2022/06/03 16:51:14;;;;;;;;;;;;;;;;;;5039179;28;19951;-88
2022/06/03 16:53:41;;;;;;;;;;;;;;;;;;5037404;28;20007;-86
2022/06/03 16:56:07;;;;;;;;;;;;;;;;;;5032991;28;20709;-85
2022/06/03 16:58:33;;;;;;;;;;;;;;;;;;5035292;28;19982;-84
2022/06/03 17:00:59;;;;;;;;;;;;;;;;;;5035474;28;19966;-84
2022/06/03 17:03:26;;;;;;;;;;;;;;;;;;5038510;28;19986;-84
2022/06/03 17:05:55;;;;;;;;;;;;;;;;;;5026962;28;19909;-83
2022/06/03 17:08:21;;;;;;;;;;;;;;;;;;5027235;28;19913;-83
2022/06/03 17:10:47;;;;;;;;;;;;;;;;;;5027788;28;20553;-82